sensor_id;sensor_type;location;lat;lon;timestamp;temperature;humidity
14585;DHT22;7379;51.506;11.876;2024-03-07T00:00:09;7.50;76.20
14585;DHT22;7379;51.506;11.876;2024-03-07T00:02:41;7.50;76.20
14585;DHT22;7379;51.506;11.876;2024-03-07T00:05:08;7.50;76.30
14585;DHT22;7379;51.506;11.876;2024-03-07T00:07:36;7.40;76.10
14585;DHT22;7379;51.506;11.876;2024-03-07T00:10:04;7.50;76.20
14585;DHT22;7379;51.506;11.876;2024-03-07T00:12:32;7.50;76.30
14585;DHT22;7379;51.506;11.876;2024-03-07T00:15:02;7.50;76.30
14585;DHT22;7379;51.506;11.876;2024-03-07T00:17:29;7.50;76.30
14585;DHT22;7379;51.506;11.876;2024-03-07T00:19:56;7.40;76.20
14585;DHT22;7379;51.506;11.876;2024-03-07T00:22:22;7.50;76.30
14585;DHT22;7379;51.506;11.876;2024-03-07T00:24:52;7.50;76.40
14585;DHT22;7379;51.506;11.876;2024-03-07T00:27:19;7.40;76.10
14585;DHT22;7379;51.506;11.876;2024-03-07T00:29:46;7.40;76.20
14585;DHT22;7379;51.506;11.876;2024-03-07T00:32:19;7.50;76.30
14585;DHT22;7379;51.506;11.876;2024-03-07T00:34:46;7.40;76.20
14585;DHT22;7379;51.506;11.876;2024-03-07T00:37:13;7.50;76.30
14585;DHT22;7379;51.506;11.876;2024-03-07T00:39:40;7.40;76.20
14585;DHT22;7379;51.506;11.876;2024-03-07T00:42:07;7.50;76.40
14585;DHT22;7379;51.506;11.876;2024-03-07T00:44:34;7.40;76.40
14585;DHT22;7379;51.506;11.876;2024-03-07T00:47:01;7.40;76.40
14585;DHT22;7379;51.506;11.876;2024-03-07T00:49:30;7.40;76.50
14585;DHT22;7379;51.506;11.876;2024-03-07T00:51:57;7.40;76.50
14585;DHT22;7379;51.506;11.876;2024-03-07T00:54:23;7.40;76.50
14585;DHT22;7379;51.506;11.876;2024-03-07T00:56:50;7.40;76.50
14585;DHT22;7379;51.506;11.876;2024-03-07T00:59:16;7.40;76.50
14585;DHT22;7379;51.506;11.876;2024-03-07T01:01:43;7.40;76.50
14585;DHT22;7379;51.506;11.876;2024-03-07T01:04:11;7.40;76.50
14585;DHT22;7379;51.506;11.876;2024-03-07T01:06:39;7.40;76.60
14585;DHT22;7379;51.506;11.876;2024-03-07T01:09:07;7.40;76.50
14585;DHT22;7379;51.506;11.876;2024-03-07T01:11:39;7.40;76.50
14585;DHT22;7379;51.506;11.876;2024-03-07T01:14:06;7.40;76.50
14585;DHT22;7379;51.506;11.876;2024-03-07T01:16:33;7.40;76.60
14585;DHT22;7379;51.506;11.876;2024-03-07T01:19:00;7.40;76.70
14585;DHT22;7379;51.506;11.876;2024-03-07T01:21:26;7.40;76.70
14585;DHT22;7379;51.506;11.876;2024-03-07T01:23:55;7.40;76.80
14585;DHT22;7379;51.506;11.876;2024-03-07T01:26:21;7.40;76.80
14585;DHT22;7379;51.506;11.876;2024-03-07T01:28:49;7.40;76.90
14585;DHT22;7379;51.506;11.876;2024-03-07T01:31:16;7.40;76.90
14585;DHT22;7379;51.506;11.876;2024-03-07T01:33:42;7.40;76.90
14585;DHT22;7379;51.506;11.876;2024-03-07T01:36:09;7.40;76.90
14585;DHT22;7379;51.506;11.876;2024-03-07T01:38:36;7.40;76.90
14585;DHT22;7379;51.506;11.876;2024-03-07T01:41:04;7.40;77.00
14585;DHT22;7379;51.506;11.876;2024-03-07T01:43:31;7.40;77.00
14585;DHT22;7379;51.506;11.876;2024-03-07T01:45:57;7.40;77.00
14585;DHT22;7379;51.506;11.876;2024-03-07T01:48:26;7.40;77.00
14585;DHT22;7379;51.506;11.876;2024-03-07T01:50:54;7.40;77.10
14585;DHT22;7379;51.506;11.876;2024-03-07T01:53:21;7.40;77.10
14585;DHT22;7379;51.506;11.876;2024-03-07T01:55:48;7.40;77.10
14585;DHT22;7379;51.506;11.876;2024-03-07T01:58:18;7.40;77.10
14585;DHT22;7379;51.506;11.876;2024-03-07T02:00:45;7.40;77.10
14585;DHT22;7379;51.506;11.876;2024-03-07T02:03:13;7.40;77.20
14585;DHT22;7379;51.506;11.876;2024-03-07T02:05:40;7.40;77.50
14585;DHT22;7379;51.506;11.876;2024-03-07T02:08:06;7.40;77.20
14585;DHT22;7379;51.506;11.876;2024-03-07T02:10:33;7.40;77.20
14585;DHT22;7379;51.506;11.876;2024-03-07T02:13:00;7.40;77.20
14585;DHT22;7379;51.506;11.876;2024-03-07T02:15:29;7.40;77.20
14585;DHT22;7379;51.506;11.876;2024-03-07T02:17:56;7.40;77.20
14585;DHT22;7379;51.506;11.876;2024-03-07T02:20:23;7.40;77.20
14585;DHT22;7379;51.506;11.876;2024-03-07T02:22:51;7.40;77.30
14585;DHT22;7379;51.506;11.876;2024-03-07T02:25:18;7.30;77.20
14585;DHT22;7379;51.506;11.876;2024-03-07T02:27:45;7.30;77.30
14585;DHT22;7379;51.506;11.876;2024-03-07T02:30:12;7.40;77.30
14585;DHT22;7379;51.506;11.876;2024-03-07T02:32:40;7.40;77.30
14585;DHT22;7379;51.506;11.876;2024-03-07T02:35:07;7.30;77.30
14585;DHT22;7379;51.506;11.876;2024-03-07T02:37:35;7.40;77.40
14585;DHT22;7379;51.506;11.876;2024-03-07T02:40:03;7.40;77.40
14585;DHT22;7379;51.506;11.876;2024-03-07T02:42:31;7.40;77.50
14585;DHT22;7379;51.506;11.876;2024-03-07T02:44:57;7.30;77.40
14585;DHT22;7379;51.506;11.876;2024-03-07T02:47:24;7.40;77.50
14585;DHT22;7379;51.506;11.876;2024-03-07T02:49:51;7.40;77.50
14585;DHT22;7379;51.506;11.876;2024-03-07T02:52:17;7.40;77.60
14585;DHT22;7379;51.506;11.876;2024-03-07T02:54:44;7.40;77.60
14585;DHT22;7379;51.506;11.876;2024-03-07T02:57:12;7.30;77.50
14585;DHT22;7379;51.506;11.876;2024-03-07T02:59:39;7.30;77.50
14585;DHT22;7379;51.506;11.876;2024-03-07T03:02:06;7.30;77.50
14585;DHT22;7379;51.506;11.876;2024-03-07T03:04:32;7.30;77.60
14585;DHT22;7379;51.506;11.876;2024-03-07T03:06:59;7.30;77.60
14585;DHT22;7379;51.506;11.876;2024-03-07T03:09:26;7.40;77.70
14585;DHT22;7379;51.506;11.876;2024-03-07T03:11:53;7.30;77.60
14585;DHT22;7379;51.506;11.876;2024-03-07T03:14:22;7.40;77.70
14585;DHT22;7379;51.506;11.876;2024-03-07T03:16:49;7.40;77.80
14585;DHT22;7379;51.506;11.876;2024-03-07T03:19:15;7.40;77.80
14585;DHT22;7379;51.506;11.876;2024-03-07T03:21:42;7.30;77.80
14585;DHT22;7379;51.506;11.876;2024-03-07T03:24:09;7.30;77.80
14585;DHT22;7379;51.506;11.876;2024-03-07T03:26:36;7.30;77.80
14585;DHT22;7379;51.506;11.876;2024-03-07T03:29:02;7.30;77.90
14585;DHT22;7379;51.506;11.876;2024-03-07T03:31:30;7.30;77.90
14585;DHT22;7379;51.506;11.876;2024-03-07T03:33:57;7.30;78.00
14585;DHT22;7379;51.506;11.876;2024-03-07T03:36:24;7.30;78.10
14585;DHT22;7379;51.506;11.876;2024-03-07T03:38:51;7.30;78.10
14585;DHT22;7379;51.506;11.876;2024-03-07T03:41:18;7.30;78.20
14585;DHT22;7379;51.506;11.876;2024-03-07T03:43:44;7.30;78.20
14585;DHT22;7379;51.506;11.876;2024-03-07T03:46:13;7.30;78.30
14585;DHT22;7379;51.506;11.876;2024-03-07T03:48:42;7.30;78.30
14585;DHT22;7379;51.506;11.876;2024-03-07T03:51:09;7.30;78.30
14585;DHT22;7379;51.506;11.876;2024-03-07T03:53:38;7.30;78.40
14585;DHT22;7379;51.506;11.876;2024-03-07T03:56:06;7.30;78.40
14585;DHT22;7379;51.506;11.876;2024-03-07T03:58:37;7.30;78.40
14585;DHT22;7379;51.506;11.876;2024-03-07T04:01:05;7.30;78.40
14585;DHT22;7379;51.506;11.876;2024-03-07T04:03:38;7.30;78.40
14585;DHT22;7379;51.506;11.876;2024-03-07T04:06:06;7.30;78.50
14585;DHT22;7379;51.506;11.876;2024-03-07T04:08:33;7.30;78.50
14585;DHT22;7379;51.506;11.876;2024-03-07T04:11:02;7.30;78.50
14585;DHT22;7379;51.506;11.876;2024-03-07T04:13:30;7.30;78.50
14585;DHT22;7379;51.506;11.876;2024-03-07T04:15:57;7.30;78.50
14585;DHT22;7379;51.506;11.876;2024-03-07T04:18:24;7.30;78.60
14585;DHT22;7379;51.506;11.876;2024-03-07T04:20:51;7.30;78.60
14585;DHT22;7379;51.506;11.876;2024-03-07T04:23:20;7.30;78.70
14585;DHT22;7379;51.506;11.876;2024-03-07T04:25:47;7.30;78.70
14585;DHT22;7379;51.506;11.876;2024-03-07T04:28:14;7.30;78.70
14585;DHT22;7379;51.506;11.876;2024-03-07T04:30:41;7.30;78.70
14585;DHT22;7379;51.506;11.876;2024-03-07T04:33:08;7.30;78.80
14585;DHT22;7379;51.506;11.876;2024-03-07T04:35:35;7.30;78.80
14585;DHT22;7379;51.506;11.876;2024-03-07T04:38:02;7.30;78.80
14585;DHT22;7379;51.506;11.876;2024-03-07T04:40:30;7.30;78.80
14585;DHT22;7379;51.506;11.876;2024-03-07T04:42:57;7.30;78.90
14585;DHT22;7379;51.506;11.876;2024-03-07T04:45:24;7.30;78.90
14585;DHT22;7379;51.506;11.876;2024-03-07T04:47:50;7.30;79.00
14585;DHT22;7379;51.506;11.876;2024-03-07T04:50:17;7.30;79.00
14585;DHT22;7379;51.506;11.876;2024-03-07T04:52:44;7.30;79.10
14585;DHT22;7379;51.506;11.876;2024-03-07T04:55:11;7.30;79.10
14585;DHT22;7379;51.506;11.876;2024-03-07T04:57:40;7.30;79.10
14585;DHT22;7379;51.506;11.876;2024-03-07T05:00:08;7.30;79.20
14585;DHT22;7379;51.506;11.876;2024-03-07T05:02:39;7.30;79.20
14585;DHT22;7379;51.506;11.876;2024-03-07T05:05:05;7.30;79.20
14585;DHT22;7379;51.506;11.876;2024-03-07T05:07:33;7.30;79.20
14585;DHT22;7379;51.506;11.876;2024-03-07T05:10:01;7.30;79.20
14585;DHT22;7379;51.506;11.876;2024-03-07T05:12:28;7.30;79.20
14585;DHT22;7379;51.506;11.876;2024-03-07T05:14:56;7.30;79.20
14585;DHT22;7379;51.506;11.876;2024-03-07T05:17:23;7.30;79.30
14585;DHT22;7379;51.506;11.876;2024-03-07T05:19:50;7.30;79.30
14585;DHT22;7379;51.506;11.876;2024-03-07T05:22:17;7.30;79.30
14585;DHT22;7379;51.506;11.876;2024-03-07T05:24:45;7.30;79.40
14585;DHT22;7379;51.506;11.876;2024-03-07T05:27:13;7.30;79.40
14585;DHT22;7379;51.506;11.876;2024-03-07T05:29:40;7.30;79.40
14585;DHT22;7379;51.506;11.876;2024-03-07T05:32:22;7.30;79.40
14585;DHT22;7379;51.506;11.876;2024-03-07T05:34:49;7.30;79.40
14585;DHT22;7379;51.506;11.876;2024-03-07T05:37:16;7.30;79.40
14585;DHT22;7379;51.506;11.876;2024-03-07T05:39:43;7.30;79.50
14585;DHT22;7379;51.506;11.876;2024-03-07T05:42:10;7.30;79.50
14585;DHT22;7379;51.506;11.876;2024-03-07T05:44:39;7.30;79.60
14585;DHT22;7379;51.506;11.876;2024-03-07T05:47:07;7.30;79.60
14585;DHT22;7379;51.506;11.876;2024-03-07T05:49:36;7.30;79.60
14585;DHT22;7379;51.506;11.876;2024-03-07T05:52:03;7.30;79.60
14585;DHT22;7379;51.506;11.876;2024-03-07T05:54:31;7.30;79.60
14585;DHT22;7379;51.506;11.876;2024-03-07T05:56:58;7.30;79.70
14585;DHT22;7379;51.506;11.876;2024-03-07T05:59:25;7.30;79.70
14585;DHT22;7379;51.506;11.876;2024-03-07T06:01:54;7.30;79.80
14585;DHT22;7379;51.506;11.876;2024-03-07T06:04:21;7.20;79.70
14585;DHT22;7379;51.506;11.876;2024-03-07T06:06:49;7.30;79.90
14585;DHT22;7379;51.506;11.876;2024-03-07T06:09:16;7.30;79.80
14585;DHT22;7379;51.506;11.876;2024-03-07T06:11:47;7.20;79.70
14585;DHT22;7379;51.506;11.876;2024-03-07T06:14:14;7.20;79.70
14585;DHT22;7379;51.506;11.876;2024-03-07T06:16:41;7.30;79.90
14585;DHT22;7379;51.506;11.876;2024-03-07T06:19:08;7.30;79.90
14585;DHT22;7379;51.506;11.876;2024-03-07T06:21:38;7.30;79.80
14585;DHT22;7379;51.506;11.876;2024-03-07T06:24:08;7.20;79.70
14585;DHT22;7379;51.506;11.876;2024-03-07T06:26:37;7.20;79.70
14585;DHT22;7379;51.506;11.876;2024-03-07T06:29:12;7.30;79.80
14585;DHT22;7379;51.506;11.876;2024-03-07T06:31:39;7.20;79.70
14585;DHT22;7379;51.506;11.876;2024-03-07T06:34:05;7.30;79.80
14585;DHT22;7379;51.506;11.876;2024-03-07T06:36:33;7.20;79.70
14585;DHT22;7379;51.506;11.876;2024-03-07T06:39:00;7.30;79.80
14585;DHT22;7379;51.506;11.876;2024-03-07T06:41:29;7.30;79.80
14585;DHT22;7379;51.506;11.876;2024-03-07T06:43:56;7.30;79.80
14585;DHT22;7379;51.506;11.876;2024-03-07T06:46:23;7.30;79.80
14585;DHT22;7379;51.506;11.876;2024-03-07T06:48:50;7.30;79.80
14585;DHT22;7379;51.506;11.876;2024-03-07T06:51:17;7.30;79.80
14585;DHT22;7379;51.506;11.876;2024-03-07T06:53:45;7.30;79.80
14585;DHT22;7379;51.506;11.876;2024-03-07T06:56:12;7.30;79.70
14585;DHT22;7379;51.506;11.876;2024-03-07T06:58:40;7.30;79.70
14585;DHT22;7379;51.506;11.876;2024-03-07T07:01:07;7.30;79.70
14585;DHT22;7379;51.506;11.876;2024-03-07T07:03:37;7.30;79.70
14585;DHT22;7379;51.506;11.876;2024-03-07T07:06:06;7.30;79.70
14585;DHT22;7379;51.506;11.876;2024-03-07T07:08:32;7.30;79.70
14585;DHT22;7379;51.506;11.876;2024-03-07T07:10:59;7.20;79.60
14585;DHT22;7379;51.506;11.876;2024-03-07T07:13:26;7.20;79.50
14585;DHT22;7379;51.506;11.876;2024-03-07T07:15:54;7.30;79.60
14585;DHT22;7379;51.506;11.876;2024-03-07T07:18:21;7.20;79.50
14585;DHT22;7379;51.506;11.876;2024-03-07T07:20:49;7.30;79.50
14585;DHT22;7379;51.506;11.876;2024-03-07T07:23:17;7.30;79.50
14585;DHT22;7379;51.506;11.876;2024-03-07T07:25:44;7.30;79.40
14585;DHT22;7379;51.506;11.876;2024-03-07T07:28:11;7.30;79.40
14585;DHT22;7379;51.506;11.876;2024-03-07T07:30:38;7.30;79.40
14585;DHT22;7379;51.506;11.876;2024-03-07T07:33:07;7.30;79.30
14585;DHT22;7379;51.506;11.876;2024-03-07T07:35:33;7.30;79.30
14585;DHT22;7379;51.506;11.876;2024-03-07T07:38:00;7.30;79.20
14585;DHT22;7379;51.506;11.876;2024-03-07T07:40:27;7.30;79.20
14585;DHT22;7379;51.506;11.876;2024-03-07T07:42:56;7.30;79.20
14585;DHT22;7379;51.506;11.876;2024-03-07T07:45:23;7.30;79.10
14585;DHT22;7379;51.506;11.876;2024-03-07T07:47:51;7.30;79.10
14585;DHT22;7379;51.506;11.876;2024-03-07T07:50:21;7.30;79.00
14585;DHT22;7379;51.506;11.876;2024-03-07T07:52:49;7.30;78.90
14585;DHT22;7379;51.506;11.876;2024-03-07T07:55:16;7.30;78.80
14585;DHT22;7379;51.506;11.876;2024-03-07T07:57:44;7.30;78.80
14585;DHT22;7379;51.506;11.876;2024-03-07T08:00:13;7.30;78.60
14585;DHT22;7379;51.506;11.876;2024-03-07T08:02:48;7.30;78.40
14585;DHT22;7379;51.506;11.876;2024-03-07T08:05:15;7.30;78.30
14585;DHT22;7379;51.506;11.876;2024-03-07T08:07:45;7.30;78.00
14585;DHT22;7379;51.506;11.876;2024-03-07T08:10:13;7.30;77.80
14585;DHT22;7379;51.506;11.876;2024-03-07T08:12:40;7.30;77.60
14585;DHT22;7379;51.506;11.876;2024-03-07T08:15:09;7.30;77.50
14585;DHT22;7379;51.506;11.876;2024-03-07T08:17:39;7.40;77.30
14585;DHT22;7379;51.506;11.876;2024-03-07T08:20:09;7.40;77.10
14585;DHT22;7379;51.506;11.876;2024-03-07T08:22:37;7.40;76.90
14585;DHT22;7379;51.506;11.876;2024-03-07T08:25:06;7.40;76.70
14585;DHT22;7379;51.506;11.876;2024-03-07T08:27:36;7.40;77.00
14585;DHT22;7379;51.506;11.876;2024-03-07T08:30:03;7.30;76.60
14585;DHT22;7379;51.506;11.876;2024-03-07T08:32:31;7.40;76.40
14585;DHT22;7379;51.506;11.876;2024-03-07T08:34:59;7.30;76.00
14585;DHT22;7379;51.506;11.876;2024-03-07T08:37:27;7.40;76.00
14585;DHT22;7379;51.506;11.876;2024-03-07T08:39:53;7.40;75.90
14585;DHT22;7379;51.506;11.876;2024-03-07T08:42:21;7.40;75.50
14585;DHT22;7379;51.506;11.876;2024-03-07T08:44:48;7.40;75.30
14585;DHT22;7379;51.506;11.876;2024-03-07T08:47:15;7.40;74.80
14585;DHT22;7379;51.506;11.876;2024-03-07T08:49:42;7.40;74.30
14585;DHT22;7379;51.506;11.876;2024-03-07T08:52:09;7.40;74.10
14585;DHT22;7379;51.506;11.876;2024-03-07T08:54:35;7.40;74.50
14585;DHT22;7379;51.506;11.876;2024-03-07T08:57:03;7.30;74.30
14585;DHT22;7379;51.506;11.876;2024-03-07T08:59:33;7.40;73.60
14585;DHT22;7379;51.506;11.876;2024-03-07T09:02:00;7.30;73.90
14585;DHT22;7379;51.506;11.876;2024-03-07T09:04:27;7.30;74.00
14585;DHT22;7379;51.506;11.876;2024-03-07T09:06:54;7.30;73.70
14585;DHT22;7379;51.506;11.876;2024-03-07T09:09:20;7.30;73.60
14585;DHT22;7379;51.506;11.876;2024-03-07T09:11:47;7.30;73.40
14585;DHT22;7379;51.506;11.876;2024-03-07T09:14:14;7.30;73.40
14585;DHT22;7379;51.506;11.876;2024-03-07T09:16:42;7.30;73.10
14585;DHT22;7379;51.506;11.876;2024-03-07T09:19:09;7.30;73.20
14585;DHT22;7379;51.506;11.876;2024-03-07T09:21:39;7.30;73.00
14585;DHT22;7379;51.506;11.876;2024-03-07T09:24:06;7.20;72.60
14585;DHT22;7379;51.506;11.876;2024-03-07T09:26:33;7.30;72.60
14585;DHT22;7379;51.506;11.876;2024-03-07T09:29:01;7.30;72.50
14585;DHT22;7379;51.506;11.876;2024-03-07T09:31:31;7.30;72.10
14585;DHT22;7379;51.506;11.876;2024-03-07T09:33:59;7.30;72.10
14585;DHT22;7379;51.506;11.876;2024-03-07T09:36:26;7.20;71.70
14585;DHT22;7379;51.506;11.876;2024-03-07T09:38:53;7.30;71.60
14585;DHT22;7379;51.506;11.876;2024-03-07T09:41:20;7.30;71.60
14585;DHT22;7379;51.506;11.876;2024-03-07T09:43:51;7.30;72.00
14585;DHT22;7379;51.506;11.876;2024-03-07T09:46:20;7.30;71.90
14585;DHT22;7379;51.506;11.876;2024-03-07T09:48:48;7.30;71.70
14585;DHT22;7379;51.506;11.876;2024-03-07T09:51:17;7.30;71.80
14585;DHT22;7379;51.506;11.876;2024-03-07T09:53:47;7.30;71.50
14585;DHT22;7379;51.506;11.876;2024-03-07T09:56:17;7.20;71.20
14585;DHT22;7379;51.506;11.876;2024-03-07T09:58:49;7.30;70.30
14585;DHT22;7379;51.506;11.876;2024-03-07T10:01:15;7.30;69.70
14585;DHT22;7379;51.506;11.876;2024-03-07T10:03:44;7.30;70.10
14585;DHT22;7379;51.506;11.876;2024-03-07T10:06:11;7.30;69.20
14585;DHT22;7379;51.506;11.876;2024-03-07T10:08:40;7.30;68.80
14585;DHT22;7379;51.506;11.876;2024-03-07T10:11:09;7.30;68.60
14585;DHT22;7379;51.506;11.876;2024-03-07T10:13:35;7.30;69.20
14585;DHT22;7379;51.506;11.876;2024-03-07T10:16:02;7.40;69.30
14585;DHT22;7379;51.506;11.876;2024-03-07T10:18:31;7.40;68.40
14585;DHT22;7379;51.506;11.876;2024-03-07T10:20:58;7.40;68.70
14585;DHT22;7379;51.506;11.876;2024-03-07T10:23:25;7.40;67.80
14585;DHT22;7379;51.506;11.876;2024-03-07T10:25:53;7.40;68.00
14585;DHT22;7379;51.506;11.876;2024-03-07T10:28:20;7.40;68.30
14585;DHT22;7379;51.506;11.876;2024-03-07T10:30:47;7.40;67.40
14585;DHT22;7379;51.506;11.876;2024-03-07T10:33:16;7.40;67.10
14585;DHT22;7379;51.506;11.876;2024-03-07T10:35:46;7.50;66.90
14585;DHT22;7379;51.506;11.876;2024-03-07T10:38:14;7.50;66.90
14585;DHT22;7379;51.506;11.876;2024-03-07T10:40:45;7.50;66.70
14585;DHT22;7379;51.506;11.876;2024-03-07T10:43:15;7.60;66.50
14585;DHT22;7379;51.506;11.876;2024-03-07T10:45:44;7.60;66.70
14585;DHT22;7379;51.506;11.876;2024-03-07T10:48:13;7.60;66.10
14585;DHT22;7379;51.506;11.876;2024-03-07T10:50:47;7.60;67.40
14585;DHT22;7379;51.506;11.876;2024-03-07T10:53:19;7.60;66.40
14585;DHT22;7379;51.506;11.876;2024-03-07T10:55:57;7.60;66.40
14585;DHT22;7379;51.506;11.876;2024-03-07T10:58:36;7.60;66.60
14585;DHT22;7379;51.506;11.876;2024-03-07T11:01:05;7.60;66.60
14585;DHT22;7379;51.506;11.876;2024-03-07T11:03:32;7.60;66.60
14585;DHT22;7379;51.506;11.876;2024-03-07T11:06:01;7.50;67.10
14585;DHT22;7379;51.506;11.876;2024-03-07T11:08:32;7.50;67.80
14585;DHT22;7379;51.506;11.876;2024-03-07T11:10:59;7.50;68.00
14585;DHT22;7379;51.506;11.876;2024-03-07T11:13:26;7.50;68.10
14585;DHT22;7379;51.506;11.876;2024-03-07T11:15:56;7.50;67.60
14585;DHT22;7379;51.506;11.876;2024-03-07T11:18:25;7.50;67.30
14585;DHT22;7379;51.506;11.876;2024-03-07T11:20:52;7.50;66.90
14585;DHT22;7379;51.506;11.876;2024-03-07T11:23:26;7.50;66.20
14585;DHT22;7379;51.506;11.876;2024-03-07T11:25:54;7.60;66.50
14585;DHT22;7379;51.506;11.876;2024-03-07T11:28:28;7.60;66.90
14585;DHT22;7379;51.506;11.876;2024-03-07T11:31:08;7.60;66.40
14585;DHT22;7379;51.506;11.876;2024-03-07T11:33:37;7.60;66.70
14585;DHT22;7379;51.506;11.876;2024-03-07T11:36:06;7.60;66.90
14585;DHT22;7379;51.506;11.876;2024-03-07T11:38:33;7.60;66.00
14585;DHT22;7379;51.506;11.876;2024-03-07T11:41:01;7.60;66.40
14585;DHT22;7379;51.506;11.876;2024-03-07T11:43:31;7.60;66.40
14585;DHT22;7379;51.506;11.876;2024-03-07T11:45:59;7.60;66.20
14585;DHT22;7379;51.506;11.876;2024-03-07T11:48:27;7.60;65.90
14585;DHT22;7379;51.506;11.876;2024-03-07T11:50:55;7.60;66.40
14585;DHT22;7379;51.506;11.876;2024-03-07T11:53:22;7.60;66.20
14585;DHT22;7379;51.506;11.876;2024-03-07T11:55:49;7.70;66.10
14585;DHT22;7379;51.506;11.876;2024-03-07T11:58:17;7.70;66.60
14585;DHT22;7379;51.506;11.876;2024-03-07T12:00:47;7.70;66.40
14585;DHT22;7379;51.506;11.876;2024-03-07T12:03:15;7.80;66.40
14585;DHT22;7379;51.506;11.876;2024-03-07T12:05:45;7.70;66.40
14585;DHT22;7379;51.506;11.876;2024-03-07T12:08:12;7.70;66.50
14585;DHT22;7379;51.506;11.876;2024-03-07T12:10:40;7.70;66.50
14585;DHT22;7379;51.506;11.876;2024-03-07T12:13:09;7.70;66.50
14585;DHT22;7379;51.506;11.876;2024-03-07T12:15:37;7.70;66.50
14585;DHT22;7379;51.506;11.876;2024-03-07T12:18:05;7.70;66.40
14585;DHT22;7379;51.506;11.876;2024-03-07T12:20:36;7.70;66.30
14585;DHT22;7379;51.506;11.876;2024-03-07T12:23:04;7.70;66.20
14585;DHT22;7379;51.506;11.876;2024-03-07T12:25:34;7.70;66.00
14585;DHT22;7379;51.506;11.876;2024-03-07T12:28:06;7.70;66.50
14585;DHT22;7379;51.506;11.876;2024-03-07T12:30:46;7.70;66.40
14585;DHT22;7379;51.506;11.876;2024-03-07T12:33:15;7.70;66.30
14585;DHT22;7379;51.506;11.876;2024-03-07T12:35:42;7.70;66.40
14585;DHT22;7379;51.506;11.876;2024-03-07T12:38:11;7.80;66.50
14585;DHT22;7379;51.506;11.876;2024-03-07T12:40:40;7.70;66.10
14585;DHT22;7379;51.506;11.876;2024-03-07T12:43:15;7.80;65.90
14585;DHT22;7379;51.506;11.876;2024-03-07T12:45:52;7.80;66.50
14585;DHT22;7379;51.506;11.876;2024-03-07T12:48:20;7.80;65.70
14585;DHT22;7379;51.506;11.876;2024-03-07T12:50:47;7.80;65.90
14585;DHT22;7379;51.506;11.876;2024-03-07T12:53:20;7.80;65.70
14585;DHT22;7379;51.506;11.876;2024-03-07T12:55:48;7.80;65.70
14585;DHT22;7379;51.506;11.876;2024-03-07T12:58:15;7.80;66.10
14585;DHT22;7379;51.506;11.876;2024-03-07T13:00:42;7.80;66.50
14585;DHT22;7379;51.506;11.876;2024-03-07T13:03:09;7.80;66.00
14585;DHT22;7379;51.506;11.876;2024-03-07T13:05:36;7.80;66.50
14585;DHT22;7379;51.506;11.876;2024-03-07T13:08:06;7.80;65.80
14585;DHT22;7379;51.506;11.876;2024-03-07T13:10:38;7.80;65.60
14585;DHT22;7379;51.506;11.876;2024-03-07T13:13:06;7.80;66.10
14585;DHT22;7379;51.506;11.876;2024-03-07T13:15:32;7.80;66.60
14585;DHT22;7379;51.506;11.876;2024-03-07T13:18:02;7.80;65.90
14585;DHT22;7379;51.506;11.876;2024-03-07T13:20:30;7.90;66.40
14585;DHT22;7379;51.506;11.876;2024-03-07T13:22:57;7.80;65.90
14585;DHT22;7379;51.506;11.876;2024-03-07T13:25:28;7.90;66.30
14585;DHT22;7379;51.506;11.876;2024-03-07T13:28:01;7.90;66.60
14585;DHT22;7379;51.506;11.876;2024-03-07T13:30:29;7.90;66.10
14585;DHT22;7379;51.506;11.876;2024-03-07T13:32:56;7.90;66.90
14585;DHT22;7379;51.506;11.876;2024-03-07T13:35:24;8.00;66.30
14585;DHT22;7379;51.506;11.876;2024-03-07T13:37:52;8.00;66.80
14585;DHT22;7379;51.506;11.876;2024-03-07T13:40:21;8.00;66.00
14585;DHT22;7379;51.506;11.876;2024-03-07T13:42:52;8.00;66.50
14585;DHT22;7379;51.506;11.876;2024-03-07T13:45:21;8.00;66.20
14585;DHT22;7379;51.506;11.876;2024-03-07T13:47:49;8.00;66.30
14585;DHT22;7379;51.506;11.876;2024-03-07T13:50:18;8.00;66.50
14585;DHT22;7379;51.506;11.876;2024-03-07T13:52:48;8.00;66.70
14585;DHT22;7379;51.506;11.876;2024-03-07T13:55:50;8.10;66.40
14585;DHT22;7379;51.506;11.876;2024-03-07T13:58:29;8.10;66.20
14585;DHT22;7379;51.506;11.876;2024-03-07T14:01:17;8.10;66.30
14585;DHT22;7379;51.506;11.876;2024-03-07T14:07:08;8.10;65.40
14585;DHT22;7379;51.506;11.876;2024-03-07T14:09:51;8.20;65.60
14585;DHT22;7379;51.506;11.876;2024-03-07T14:12:48;8.20;64.60
14585;DHT22;7379;51.506;11.876;2024-03-07T14:19:13;8.30;65.00
14585;DHT22;7379;51.506;11.876;2024-03-07T14:22:01;8.40;64.70
14585;DHT22;7379;51.506;11.876;2024-03-07T14:24:50;8.30;65.00
14585;DHT22;7379;51.506;11.876;2024-03-07T14:27:28;8.40;64.70
14585;DHT22;7379;51.506;11.876;2024-03-07T14:30:19;8.40;64.00
14585;DHT22;7379;51.506;11.876;2024-03-07T14:32:49;8.40;63.70
14585;DHT22;7379;51.506;11.876;2024-03-07T14:35:23;8.40;63.40
14585;DHT22;7379;51.506;11.876;2024-03-07T14:37:54;8.40;63.50
14585;DHT22;7379;51.506;11.876;2024-03-07T14:40:22;8.50;63.60
14585;DHT22;7379;51.506;11.876;2024-03-07T14:42:51;8.60;63.20
14585;DHT22;7379;51.506;11.876;2024-03-07T14:45:23;8.60;63.10
14585;DHT22;7379;51.506;11.876;2024-03-07T14:47:52;8.60;63.00
14585;DHT22;7379;51.506;11.876;2024-03-07T14:50:21;8.60;62.40
14585;DHT22;7379;51.506;11.876;2024-03-07T14:52:48;8.70;62.20
14585;DHT22;7379;51.506;11.876;2024-03-07T14:55:15;8.70;61.90
14585;DHT22;7379;51.506;11.876;2024-03-07T14:57:44;8.80;62.20
14585;DHT22;7379;51.506;11.876;2024-03-07T15:00:12;8.80;62.20
14585;DHT22;7379;51.506;11.876;2024-03-07T15:02:45;8.80;61.40
14585;DHT22;7379;51.506;11.876;2024-03-07T15:05:12;8.80;61.90
14585;DHT22;7379;51.506;11.876;2024-03-07T15:07:40;8.70;62.10
14585;DHT22;7379;51.506;11.876;2024-03-07T15:10:10;8.70;61.70
14585;DHT22;7379;51.506;11.876;2024-03-07T15:12:37;8.70;62.60
14585;DHT22;7379;51.506;11.876;2024-03-07T15:15:04;8.70;62.90
14585;DHT22;7379;51.506;11.876;2024-03-07T15:17:31;8.60;63.70
14585;DHT22;7379;51.506;11.876;2024-03-07T15:19:58;8.60;63.70
14585;DHT22;7379;51.506;11.876;2024-03-07T15:22:24;8.70;62.70
14585;DHT22;7379;51.506;11.876;2024-03-07T15:24:52;8.70;62.80
14585;DHT22;7379;51.506;11.876;2024-03-07T15:27:19;8.80;62.00
14585;DHT22;7379;51.506;11.876;2024-03-07T15:29:47;8.90;61.20
14585;DHT22;7379;51.506;11.876;2024-03-07T15:32:13;8.90;61.10
14585;DHT22;7379;51.506;11.876;2024-03-07T15:34:42;9.00;61.60
14585;DHT22;7379;51.506;11.876;2024-03-07T15:40:32;9.00;61.00
14585;DHT22;7379;51.506;11.876;2024-03-07T15:42:59;8.90;61.40
14585;DHT22;7379;51.506;11.876;2024-03-07T15:45:27;8.80;61.70
14585;DHT22;7379;51.506;11.876;2024-03-07T15:47:55;8.80;62.30
14585;DHT22;7379;51.506;11.876;2024-03-07T15:50:24;8.70;62.50
14585;DHT22;7379;51.506;11.876;2024-03-07T15:52:55;8.70;63.40
14585;DHT22;7379;51.506;11.876;2024-03-07T15:55:23;8.60;63.60
14585;DHT22;7379;51.506;11.876;2024-03-07T15:57:52;8.60;64.20
14585;DHT22;7379;51.506;11.876;2024-03-07T16:00:20;8.60;64.50
14585;DHT22;7379;51.506;11.876;2024-03-07T16:02:51;8.50;64.70